Time;durP1;ratioP1;P1;durP2;ratioP2;P2;SDS_P1;SDS_P2;PMS_P1;PMS_P2;Temp;Humidity;BMP_temperature;BMP_pressure;BME280_temperature;BME280_humidity;BME280_pressure;Samples;Min_cycle;Max_cycle;Signal;HPM_P1;HPM_P2
2022/04/27 00:00:13;;;;;;;5.95;4.32;;;;;;;2.67;92.80;102587.78;5071261;28;20037;-73
2022/04/27 00:02:39;;;;;;;8.57;4.57;;;;;;;2.69;93.26;102583.38;5073957;28;20036;-74
2022/04/27 00:05:04;;;;;;;6.82;5.05;;;;;;;2.72;93.58;102585.91;5073555;28;20074;-73
2022/04/27 00:07:30;;;;;;;9.50;5.35;;;;;;;2.77;93.99;102583.13;5073572;28;20040;-73
2022/04/27 00:09:55;;;;;;;11.57;5.28;;;;;;;2.81;94.60;102580.38;5073509;28;20052;-74
2022/04/27 00:12:21;;;;;;;5.75;4.68;;;;;;;2.79;94.31;102574.31;5073677;28;20029;-74
2022/04/27 00:14:47;;;;;;;5.25;4.40;;;;;;;2.78;93.66;102585.72;5073253;28;20439;-74
2022/04/27 00:17:12;;;;;;;6.80;4.55;;;;;;;2.78;93.83;102575.19;5073564;28;20036;-73
2022/04/27 00:19:38;;;;;;;6.70;4.88;;;;;;;2.78;93.95;102571.72;5071990;28;20040;-73
2022/04/27 00:22:03;;;;;;;5.95;4.88;;;;;;;2.80;94.28;102580.41;5073700;28;20032;-73
2022/04/27 00:24:29;;;;;;;6.78;4.72;;;;;;;2.78;94.01;102575.19;5073321;28;20065;-74
2022/04/27 00:26:54;;;;;;;6.10;4.78;;;;;;;2.77;94.00;102573.47;5073190;28;20037;-73
2022/04/27 00:29:19;;;;;;;5.72;4.00;;;;;;;2.79;94.36;102579.56;5073022;28;20032;-73
2022/04/27 00:31:45;;;;;;;5.72;4.35;;;;;;;2.81;94.30;102579.53;5073162;28;20037;-76
2022/04/27 00:34:10;;;;;;;10.43;4.43;;;;;;;2.84;94.04;102579.41;5073328;28;20042;-73
2022/04/27 00:36:35;;;;;;;4.85;4.35;;;;;;;2.91;94.37;102580.09;5071926;28;20036;-73
2022/04/27 00:39:02;;;;;;;7.22;4.65;;;;;;;2.97;94.83;102580.78;5073211;28;20035;-73
2022/04/27 00:41:27;;;;;;;7.68;4.30;;;;;;;3.06;95.54;102582.25;5071591;28;20453;-74
2022/04/27 00:43:54;;;;;;;6.80;4.75;;;;;;;3.15;95.81;102581.97;5075423;28;20069;-74
2022/04/27 00:46:20;;;;;;;8.63;5.70;;;;;;;3.26;96.39;102573.72;5093467;28;20036;-74
2022/04/27 00:48:45;;;;;;;6.50;4.60;;;;;;;3.40;97.26;102577.69;5093150;28;20399;-73
2022/04/27 00:51:16;;;;;;;9.35;5.72;;;;;;;3.53;97.92;102579.00;5092987;28;20055;-73
2022/04/27 00:53:43;;;;;;;13.05;6.00;;;;;;;3.68;98.59;102583.75;5075153;28;20083;-73
2022/04/27 00:56:09;;;;;;;8.10;6.40;;;;;;;3.82;99.23;102585.94;5093037;28;20119;-73
2022/04/27 00:58:35;;;;;;;9.15;6.00;;;;;;;3.96;99.50;102587.22;5092981;28;20037;-74
2022/04/27 01:01:00;;;;;;;10.80;6.25;;;;;;;4.05;99.89;102577.22;5092569;28;20039;-73
2022/04/27 01:03:26;;;;;;;7.45;5.32;;;;;;;4.15;99.63;102583.03;5092785;28;20392;-73
2022/04/27 01:05:51;;;;;;;11.13;5.78;;;;;;;4.23;99.71;102580.13;5093134;28;20191;-75
2022/04/27 01:08:19;;;;;;;11.15;7.05;;;;;;;4.30;99.65;102575.47;5092681;28;20046;-74
2022/04/27 01:10:46;;;;;;;8.55;6.13;;;;;;;4.37;99.70;102577.84;5074436;28;20468;-72
2022/04/27 01:13:12;;;;;;;10.75;6.30;;;;;;;4.43;99.60;102575.88;5092272;28;20494;-72
2022/04/27 01:15:38;;;;;;;10.27;6.35;;;;;;;4.49;99.71;102579.16;5074395;28;20089;-75
2022/04/27 01:18:04;;;;;;;11.63;6.43;;;;;;;4.55;99.89;102578.06;5092640;28;20028;-73
2022/04/27 01:20:47;;;;;;;11.40;6.15;;;;;;;4.61;99.82;102580.47;5092613;28;20032;-73
2022/04/27 01:23:13;;;;;;;10.43;6.38;;;;;;;4.64;99.58;102585.63;5074093;28;20451;-74
2022/04/27 01:25:50;;;;;;;13.50;6.65;;;;;;;4.67;99.69;102576.75;5074182;28;20035;-74
2022/04/27 01:28:22;;;;;;;11.00;6.65;;;;;;;4.73;99.54;102580.03;5091966;28;20047;-73
2022/04/27 01:30:55;;;;;;;9.65;6.32;;;;;;;4.77;99.43;102578.13;5092125;28;20028;-73
2022/04/27 01:33:21;;;;;;;10.00;6.35;;;;;;;4.82;99.33;102585.84;5092129;28;20057;-74
2022/04/27 01:35:46;;;;;;;10.60;6.07;;;;;;;4.89;99.50;102582.06;5092110;28;20126;-73
2022/04/27 01:38:11;;;;;;;7.55;6.13;;;;;;;4.95;99.51;102587.09;5091821;28;20437;-74
2022/04/27 01:40:37;;;;;;;10.18;5.93;;;;;;;4.99;99.74;102591.34;5092287;28;20036;-74
2022/04/27 01:43:02;;;;;;;11.27;6.05;;;;;;;5.02;98.96;102585.94;5091789;28;20084;-73
2022/04/27 01:45:28;;;;;;;7.80;5.45;;;;;;;5.05;99.09;102587.59;5092196;28;20056;-74
2022/04/27 01:47:53;;;;;;;8.07;5.05;;;;;;;5.09;98.91;102591.81;5074109;28;20122;-73
2022/04/27 01:50:19;;;;;;;9.05;5.50;;;;;;;5.11;98.69;102592.63;5092416;28;20460;-73
2022/04/27 01:55:29;;;;;;;9.82;5.57;;;;;;;5.15;98.23;102596.88;5091868;28;20383;-73
2022/04/27 01:57:54;;;;;;;9.77;5.47;;;;;;;5.17;98.21;102595.03;5091638;28;20031;-73
2022/04/27 02:00:21;;;;;;;10.32;5.78;;;;;;;5.18;97.99;102593.25;5072929;28;20032;-73
2022/04/27 02:02:47;;;;;;;8.80;5.30;;;;;;;5.21;97.98;102601.03;5091467;28;20050;-73
2022/04/27 02:05:12;;;;;;;8.25;5.15;;;;;;;5.23;97.90;102594.78;5091529;28;20472;-73
2022/04/27 02:07:37;;;;;;;13.48;5.85;;;;;;;5.24;97.50;102611.47;5091236;28;20081;-73
2022/04/27 02:10:05;;;;;;;10.30;5.18;;;;;;;5.25;97.06;102608.75;5073282;28;20050;-73
2022/04/27 02:12:31;;;;;;;9.13;5.95;;;;;;;5.26;97.28;102607.84;5073471;28;20460;-73
2022/04/27 02:14:56;;;;;;;11.93;5.68;;;;;;;5.28;97.24;102605.16;5091369;28;20036;-74
2022/04/27 02:17:22;;;;;;;9.35;5.78;;;;;;;5.29;97.52;102606.88;5091283;28;20085;-73
2022/04/27 02:19:48;;;;;;;8.98;5.57;;;;;;;5.29;97.71;102609.53;5091564;28;20336;-75
2022/04/27 02:22:13;;;;;;;14.10;5.38;;;;;;;5.30;97.90;102613.88;5091118;28;20082;-74
2022/04/27 02:24:38;;;;;;;10.00;5.63;;;;;;;5.29;98.18;102617.44;5091289;28;20104;-74
2022/04/27 02:27:04;;;;;;;14.18;6.30;;;;;;;5.30;98.32;102621.81;5091291;28;20043;-75
2022/04/27 02:29:29;;;;;;;8.52;5.13;;;;;;;5.30;98.14;102622.66;5090995;28;20474;-74
2022/04/27 02:31:55;;;;;;;10.45;5.53;;;;;;;5.34;98.20;102626.00;5072767;28;20614;-74
2022/04/27 02:34:20;;;;;;;10.25;5.30;;;;;;;5.36;98.18;102628.59;5090969;28;20036;-74
2022/04/27 02:36:45;;;;;;;11.95;5.60;;;;;;;5.37;97.97;102630.31;5091493;28;20035;-74
2022/04/27 02:39:11;;;;;;;8.55;4.95;;;;;;;5.38;97.73;102627.63;5090933;28;20121;-74
2022/04/27 02:41:36;;;;;;;11.50;5.65;;;;;;;5.39;97.65;102623.19;5090637;28;20468;-74
2022/04/27 02:44:02;;;;;;;10.23;5.93;;;;;;;5.41;97.14;102629.28;5072356;28;20427;-77
2022/04/27 02:46:27;;;;;;;10.55;5.57;;;;;;;5.42;97.21;102625.69;5072647;28;20062;-74
2022/04/27 02:51:51;;;;;;;8.35;5.00;;;;;;;5.44;96.55;102631.81;5091027;28;20131;-74
2022/04/27 02:54:18;;;;;;;8.05;4.90;;;;;;;5.46;96.36;102630.81;5090793;28;20032;-67
2022/04/27 02:56:43;;;;;;;11.80;5.82;;;;;;;5.48;96.10;102631.63;5089680;28;20042;-67
2022/04/27 02:59:09;;;;;;;11.35;5.85;;;;;;;5.50;96.11;102628.91;5089811;28;20035;-68
2022/04/27 03:01:34;;;;;;;10.02;6.10;;;;;;;5.53;95.91;102630.56;5089868;28;20065;-68
2022/04/27 03:04:00;;;;;;;10.38;5.70;;;;;;;5.54;95.47;102627.88;5071640;28;20032;-68
2022/04/27 03:06:26;;;;;;;8.90;5.78;;;;;;;5.54;95.19;102633.16;5089873;28;20036;-69
2022/04/27 03:08:51;;;;;;;10.45;5.60;;;;;;;5.56;95.16;102628.66;5089635;28;20093;-68
2022/04/27 03:11:17;;;;;;;11.05;5.75;;;;;;;5.56;95.08;102628.66;5071411;28;20135;-68
2022/04/27 03:13:42;;;;;;;9.95;5.97;;;;;;;5.55;94.69;102629.56;5089772;28;20032;-68
2022/04/27 03:16:07;;;;;;;8.27;5.72;;;;;;;5.56;94.58;102636.56;5089560;28;20039;-69
2022/04/27 03:18:33;;;;;;;12.95;5.88;;;;;;;5.56;94.43;102622.53;5089816;28;20035;-69
2022/04/27 03:20:58;;;;;;;11.55;5.68;;;;;;;5.57;94.92;102632.16;5089801;28;20055;-69
2022/04/27 03:23:24;;;;;;;7.65;5.28;;;;;;;5.56;95.30;102626.00;5089741;28;20420;-69
2022/04/27 03:25:49;;;;;;;10.88;5.15;;;;;;;5.54;95.70;102619.06;5089661;28;20085;-69
2022/04/27 03:28:15;;;;;;;8.90;5.53;;;;;;;5.51;95.64;102627.13;5089536;28;20090;-70
2022/04/27 03:30:41;;;;;;;9.07;5.72;;;;;;;5.47;95.42;102621.97;5089466;28;20413;-69
2022/04/27 03:33:06;;;;;;;9.90;5.88;;;;;;;5.48;95.78;102625.47;5090736;28;20136;-72
2022/04/27 03:35:31;;;;;;;9.57;5.15;;;;;;;5.48;96.07;102622.84;5093372;28;20105;-68
2022/04/27 03:37:58;;;;;;;8.27;5.15;;;;;;;5.49;95.84;102621.91;5093383;28;20034;-68
2022/04/27 03:40:26;;;;;;;6.97;4.65;;;;;;;5.51;96.04;102616.56;5093128;28;20077;-69
2022/04/27 03:42:53;;;;;;;8.82;4.80;;;;;;;5.50;95.73;102615.72;5093329;28;20028;-69
2022/04/27 03:45:19;;;;;;;9.05;5.03;;;;;;;5.53;95.74;102623.50;5093436;28;20040;-69
2022/04/27 03:47:48;;;;;;;10.15;4.90;;;;;;;5.56;95.40;102618.09;5075056;28;20097;-69
2022/04/27 03:50:15;;;;;;;8.77;5.03;;;;;;;5.57;95.49;102627.75;5092997;28;20103;-68
2022/04/27 03:52:42;;;;;;;7.38;4.78;;;;;;;5.60;95.07;102634.69;5093106;28;20097;-69
2022/04/27 03:55:08;;;;;;;7.75;4.57;;;;;;;5.59;94.66;102636.44;5093098;28;20028;-69
2022/04/27 03:57:33;;;;;;;7.97;5.07;;;;;;;5.60;94.50;102627.63;5092821;28;20032;-69
2022/04/27 03:59:59;;;;;;;9.02;5.07;;;;;;;5.61;94.39;102634.63;5093232;28;20187;-68
2022/04/27 04:02:24;;;;;;;12.02;5.53;;;;;;;5.63;94.37;102626.63;5074995;28;20138;-68
2022/04/27 04:04:49;;;;;;;11.52;5.30;;;;;;;5.65;94.34;102628.28;5092803;28;20024;-69
2022/04/27 04:07:15;;;;;;;9.27;5.55;;;;;;;5.67;94.44;102628.22;5074244;28;20061;-68
2022/04/27 04:09:40;;;;;;;8.90;5.05;;;;;;;5.70;94.86;102637.78;5074481;28;20043;-69
2022/04/27 04:12:07;;;;;;;8.73;5.32;;;;;;;5.71;94.56;102636.88;5092603;28;20142;-69
2022/04/27 04:14:33;;;;;;;9.82;5.47;;;;;;;5.71;94.60;102632.44;5092866;28;20024;-69
2022/04/27 04:16:58;;;;;;;12.93;6.18;;;;;;;5.73;94.61;102642.94;5092702;28;20112;-69
2022/04/27 04:19:24;;;;;;;6.57;5.47;;;;;;;5.75;94.63;102644.63;5074205;28;20039;-69
2022/04/27 04:21:49;;;;;;;8.38;5.22;;;;;;;5.76;94.81;102642.81;5092510;28;20047;-69
2022/04/27 04:24:14;;;;;;;12.57;5.35;;;;;;;5.76;94.79;102641.06;5092246;28;20400;-72
2022/04/27 04:29:24;;;;;;;8.68;5.97;;;;;;;5.81;95.52;102649.63;5092609;28;20344;-68
2022/04/27 04:31:49;;;;;;;10.95;6.40;;;;;;;5.82;95.68;102651.38;5092318;28;20024;-67
2022/04/27 04:34:15;;;;;;;9.35;5.82;;;;;;;5.86;95.79;102651.22;5074069;28;20336;-71
2022/04/27 04:36:40;;;;;;;14.00;7.05;;;;;;;5.86;95.71;102649.44;5092064;28;20028;-68
2022/04/27 04:39:05;;;;;;;9.60;6.15;;;;;;;5.87;95.55;102656.44;5092269;28;20050;-69
2022/04/27 04:41:31;;;;;;;9.93;6.22;;;;;;;5.90;95.16;102655.47;5073528;28;20428;-69
2022/04/27 04:43:56;;;;;;;12.40;6.50;;;;;;;5.94;95.12;102667.59;5073903;28;20042;-68
2022/04/27 04:46:21;;;;;;;10.15;6.28;;;;;;;5.95;94.77;102667.53;5072790;28;20443;-68
2022/04/27 04:48:47;;;;;;;11.40;5.93;;;;;;;5.95;94.43;102664.06;5092208;28;20070;-68
2022/04/27 04:51:12;;;;;;;10.07;6.43;;;;;;;5.99;94.07;102668.31;5092177;28;20115;-69
2022/04/27 04:53:37;;;;;;;9.43;6.18;;;;;;;6.03;93.83;102672.56;5091747;28;20171;-69
2022/04/27 04:56:03;;;;;;;12.30;6.40;;;;;;;6.05;93.88;102676.00;5092095;28;20034;-69
2022/04/27 04:58:29;;;;;;;13.48;5.65;;;;;;;6.08;93.59;102680.28;5073648;28;20074;-69
2022/04/27 05:00:54;;;;;;;9.40;5.47;;;;;;;6.10;93.28;102681.94;5091840;28;20077;-68
2022/04/27 05:03:20;;;;;;;9.52;5.50;;;;;;;6.12;93.17;102684.50;5092086;28;20032;-70
2022/04/27 05:05:45;;;;;;;9.75;5.55;;;;;;;6.15;92.77;102685.25;5091760;28;20051;-69
2022/04/27 05:08:11;;;;;;;9.73;5.60;;;;;;;6.17;92.71;102687.84;5091872;28;20396;-69
2022/04/27 05:10:36;;;;;;;9.70;5.65;;;;;;;6.21;92.42;102694.72;5091296;28;20028;-69
2022/04/27 05:13:03;;;;;;;9.40;6.05;;;;;;;6.25;92.53;102698.06;5091884;28;20126;-70
2022/04/27 05:15:28;;;;;;;11.68;5.55;;;;;;;6.29;92.25;102702.31;5091411;28;20130;-69
2022/04/27 05:17:53;;;;;;;9.68;5.20;;;;;;;6.32;91.93;102708.31;5091215;28;20115;-69
2022/04/27 05:20:19;;;;;;;9.68;5.30;;;;;;;6.34;91.43;102702.97;5091739;28;20040;-70
2022/04/27 05:22:44;;;;;;;6.95;5.20;;;;;;;6.37;91.07;102705.47;5091155;28;20115;-68
2022/04/27 05:25:11;;;;;;;10.45;5.53;;;;;;;6.40;90.59;102704.50;5091322;28;20337;-68
2022/04/27 05:27:37;;;;;;;7.55;4.93;;;;;;;6.43;90.16;102718.41;5091122;28;20032;-68
2022/04/27 05:32:50;;;;;;;8.43;5.68;;;;;;;6.52;90.30;102722.47;5091085;28;20043;-68
2022/04/27 05:35:16;;;;;;;11.43;5.43;;;;;;;6.59;90.87;102723.06;5091129;28;20032;-69
2022/04/27 05:37:41;;;;;;;11.18;6.10;;;;;;;6.63;91.27;102728.16;5091315;28;20138;-68
2022/04/27 05:40:09;;;;;;;11.85;5.55;;;;;;;6.67;91.75;102726.22;5090611;28;20456;-68
2022/04/27 05:42:36;;;;;;;12.07;5.43;;;;;;;6.73;91.88;102735.69;5091119;28;20133;-68
2022/04/27 05:45:05;;;;;;;9.60;5.15;;;;;;;6.76;91.46;102730.25;5090761;28;20498;-69
2022/04/27 05:47:30;;;;;;;8.23;4.93;;;;;;;6.79;90.86;102731.00;5090912;28;20039;-69
2022/04/27 05:49:56;;;;;;;9.50;5.45;;;;;;;6.85;91.02;102729.84;5091102;28;20041;-68
2022/04/27 05:52:21;;;;;;;8.45;4.72;;;;;;;6.91;90.65;102731.34;5090606;28;20036;-68
2022/04/27 05:54:48;;;;;;;7.65;4.60;;;;;;;6.94;89.39;102732.09;5090221;28;20055;-68
2022/04/27 05:57:13;;;;;;;12.55;5.13;;;;;;;6.99;88.57;102730.09;5089782;28;20337;-69
2022/04/27 05:59:39;;;;;;;6.00;4.07;;;;;;;7.04;88.61;102732.53;5072552;28;20043;-70
2022/04/27 06:02:04;;;;;;;5.28;3.72;;;;;;;7.10;87.70;102736.69;5091169;28;20413;-69
2022/04/27 06:04:29;;;;;;;12.55;3.88;;;;;;;7.18;87.36;102737.16;5072760;28;20314;-69
2022/04/27 06:06:55;;;;;;;8.43;3.50;;;;;;;7.22;86.20;102744.91;5072364;28;20032;-69
2022/04/27 06:09:20;;;;;;;8.45;3.35;;;;;;;7.26;85.33;102737.69;5090611;28;20475;-69
2022/04/27 06:11:47;;;;;;;6.10;3.63;;;;;;;7.33;84.77;102744.44;5090361;28;20111;-69
2022/04/27 06:14:12;;;;;;;9.40;3.47;;;;;;;7.39;84.53;102744.13;5090616;28;20062;-69
2022/04/27 06:16:38;;;;;;;11.68;3.80;;;;;;;7.46;84.01;102743.84;5090223;28;20088;-68
2022/04/27 06:19:05;;;;;;;10.60;3.70;;;;;;;7.48;82.80;102748.16;5090406;28;20032;-68
2022/04/27 06:21:31;;;;;;;10.23;3.92;;;;;;;7.54;82.43;102757.59;5090194;28;20028;-69
2022/04/27 06:23:59;;;;;;;9.50;3.42;;;;;;;7.58;82.49;102754.75;5090342;28;20115;-69
2022/04/27 06:26:24;;;;;;;10.07;4.00;;;;;;;7.63;82.08;102762.47;5090275;28;20047;-68
2022/04/27 06:28:51;;;;;;;10.02;3.80;;;;;;;7.66;81.08;102762.31;5090261;28;20032;-69
2022/04/27 06:31:17;;;;;;;9.07;3.72;;;;;;;7.69;79.97;102764.81;5090267;28;20116;-69
2022/04/27 06:33:43;;;;;;;6.50;3.30;;;;;;;7.73;79.87;102765.50;5090550;28;20184;-69
2022/04/27 06:36:08;;;;;;;9.30;3.85;;;;;;;7.75;79.02;102767.16;5090307;28;20204;-69
2022/04/27 06:38:33;;;;;;;8.75;3.50;;;;;;;7.78;78.65;102768.81;5089972;28;20476;-69
2022/04/27 06:40:59;;;;;;;8.65;2.80;;;;;;;7.83;79.06;102765.94;5090275;28;20039;-69
2022/04/27 06:43:24;;;;;;;5.07;2.83;;;;;;;7.87;78.21;102776.31;5089616;28;20059;-69
2022/04/27 06:45:49;;;;;;;14.02;3.38;;;;;;;7.92;77.97;102776.09;5089614;28;20051;-69
2022/04/27 06:48:15;;;;;;;6.85;2.85;;;;;;;7.98;78.72;102774.94;5090203;28;20120;-69
2022/04/27 06:50:40;;;;;;;5.47;3.67;;;;;;;7.98;76.93;102778.44;5089970;28;20424;-70
2022/04/27 06:53:06;;;;;;;5.63;2.95;;;;;;;8.04;77.60;102779.94;5090137;28;20036;-69
2022/04/27 06:55:31;;;;;;;6.38;3.08;;;;;;;8.10;78.30;102784.94;5071549;28;20028;-73
2022/04/27 06:57:57;;;;;;;4.57;2.55;;;;;;;8.16;78.70;102784.63;5090062;28;20490;-67
2022/04/27 07:00:24;;;;;;;5.38;2.97;;;;;;;8.22;77.70;102786.13;5090251;28;20321;-71
2022/04/27 07:02:49;;;;;;;7.13;2.90;;;;;;;8.28;77.69;102796.44;5090121;28;20063;-69
2022/04/27 07:05:20;;;;;;;4.88;2.65;;;;;;;8.30;76.02;102795.44;5071988;28;20086;-71
2022/04/27 07:07:45;;;;;;;7.65;2.50;;;;;;;8.30;75.07;102794.59;5090427;28;20063;-71
2022/04/27 07:10:12;;;;;;;7.18;2.70;;;;;;;8.35;74.88;102786.41;5075501;28;20066;-69
2022/04/27 07:12:38;;;;;;;11.88;2.70;;;;;;;8.42;74.49;102790.44;5093947;28;20043;-70
2022/04/27 07:15:05;;;;;;;8.65;3.08;;;;;;;8.50;73.98;102790.09;5094029;28;20032;-71
2022/04/27 07:17:31;;;;;;;4.53;2.17;;;;;;;8.58;74.36;102794.09;5093468;28;20043;-69
2022/04/27 07:19:57;;;;;;;8.02;2.70;;;;;;;8.64;72.88;102801.72;5093864;28;20059;-70
2022/04/27 07:22:22;;;;;;;9.63;2.60;;;;;;;8.72;72.71;102803.97;5093277;28;20028;-71
2022/04/27 07:24:49;;;;;;;4.80;2.42;;;;;;;8.78;71.83;102810.78;5093491;28;20035;-69
2022/04/27 07:27:15;;;;;;;7.97;2.40;;;;;;;8.86;71.48;102808.56;5093624;28;20031;-69
2022/04/27 07:29:40;;;;;;;6.15;2.45;;;;;;;8.94;71.09;102816.13;5093234;28;20103;-70
2022/04/27 07:32:06;;;;;;;4.05;2.22;;;;;;;8.99;71.41;102814.09;5092928;28;20032;-70
2022/04/27 07:34:32;;;;;;;6.95;3.38;;;;;;;9.01;70.79;102817.53;5075359;28;20444;-72
2022/04/27 07:36:58;;;;;;;7.97;2.85;;;;;;;9.00;71.17;102824.66;5093272;28;20086;-69
2022/04/27 07:39:26;;;;;;;7.75;2.95;;;;;;;9.07;71.87;102824.31;5093523;28;20077;-69
2022/04/27 07:41:51;;;;;;;8.20;3.05;;;;;;;9.15;70.71;102822.97;5092924;28;20032;-69
2022/04/27 07:44:16;;;;;;;5.68;3.17;;;;;;;9.16;70.71;102827.31;5093408;28;20024;-70
2022/04/27 07:46:47;;;;;;;7.13;2.85;;;;;;;9.18;70.83;102829.91;5093444;28;20470;-69
2022/04/27 07:49:13;;;;;;;5.60;3.03;;;;;;;9.22;70.93;102830.63;5075501;28;20028;-70
2022/04/27 07:51:39;;;;;;;6.53;2.67;;;;;;;9.29;67.83;102837.31;5093257;28;20036;-72
2022/04/27 07:54:04;;;;;;;3.88;2.20;;;;;;;9.24;68.80;102839.34;5093090;28;20116;-69
2022/04/27 07:56:29;;;;;;;6.78;2.60;;;;;;;9.33;68.30;102833.53;5074249;28;20028;-70
2022/04/27 07:58:55;;;;;;;5.70;2.45;;;;;;;9.38;67.45;102838.63;5093158;28;20076;-70
2022/04/27 08:01:20;;;;;;;7.95;2.72;;;;;;;9.42;68.53;102842.81;5092892;28;20123;-70
2022/04/27 08:03:45;;;;;;;6.88;2.17;;;;;;;9.50;67.76;102843.28;5092535;28;20043;-70
2022/04/27 08:06:11;;;;;;;4.50;2.17;;;;;;;9.52;67.25;102828.09;5093053;28;20111;-70
2022/04/27 08:08:37;;;;;;;2.40;1.90;;;;;;;9.63;67.18;102838.13;5092883;28;20090;-70
2022/04/27 08:11:02;;;;;;;6.80;1.98;;;;;;;9.67;64.78;102837.91;5092849;28;20111;-70
2022/04/27 08:13:28;;;;;;;3.75;2.08;;;;;;;9.74;64.71;102848.19;5092992;28;20060;-70
2022/04/27 08:15:53;;;;;;;5.63;2.40;;;;;;;9.78;64.32;102852.38;5092256;28;20042;-70
2022/04/27 08:18:20;;;;;;;6.47;2.08;;;;;;;9.88;65.33;102853.59;5092663;28;20337;-69
2022/04/27 08:23:33;;;;;;;4.60;2.10;;;;;;;10.01;63.95;102869.72;5093053;28;20436;-72
2022/04/27 08:26:01;;;;;;;5.78;1.88;;;;;;;9.99;64.17;102866.31;5092498;28;20024;-71
2022/04/27 08:28:27;;;;;;;7.03;2.05;;;;;;;10.05;62.79;102871.28;5092529;28;20115;-72
2022/04/27 08:30:53;;;;;;;4.53;2.13;;;;;;;10.06;64.21;102867.66;5092172;28;20135;-70
2022/04/27 08:33:19;;;;;;;6.97;2.63;;;;;;;10.07;64.70;102869.38;5092816;28;20036;-71
2022/04/27 08:35:46;;;;;;;8.50;2.72;;;;;;;10.07;64.34;102867.56;5092485;28;20080;-74
2022/04/27 08:38:12;;;;;;;6.28;1.90;;;;;;;10.06;63.25;102865.00;5092392;28;20063;-73
2022/04/27 08:40:40;;;;;;;9.38;2.78;;;;;;;10.09;62.52;102869.31;5091987;28;20092;-70
2022/04/27 08:43:06;;;;;;;5.10;2.28;;;;;;;10.12;61.66;102866.47;5091723;28;20028;-70
2022/04/27 08:45:33;;;;;;;5.05;2.20;;;;;;;10.19;61.11;102871.34;5092227;28;20040;-69
2022/04/27 08:47:59;;;;;;;5.22;1.98;;;;;;;10.11;61.73;102870.09;5092133;28;20031;-69
2022/04/27 08:50:26;;;;;;;5.25;2.13;;;;;;;10.06;63.19;102873.84;5073819;28;20024;-71
2022/04/27 08:52:52;;;;;;;4.07;1.95;;;;;;;10.04;61.29;102880.19;5092262;28;20024;-71
2022/04/27 08:55:18;;;;;;;4.60;1.85;;;;;;;10.13;59.91;102874.34;5091948;28;20477;-71
2022/04/27 08:57:44;;;;;;;4.07;1.50;;;;;;;10.22;59.29;102878.31;5091426;28;20087;-70
2022/04/27 09:00:13;;;;;;;2.92;1.60;;;;;;;10.26;58.27;102882.50;5091889;28;20035;-69
2022/04/27 09:02:39;;;;;;;1.83;1.45;;;;;;;10.33;58.97;102880.34;5091449;28;20081;-70
2022/04/27 09:05:15;;;;;;;5.47;1.60;;;;;;;10.45;57.64;102884.16;5073464;28;20024;-71
2022/04/27 09:07:51;;;;;;;3.72;1.70;;;;;;;10.53;57.85;102884.56;5091559;28;20062;-71
2022/04/27 09:10:22;;;;;;;3.55;1.58;;;;;;;10.64;56.73;102894.59;5091692;28;20036;-70
2022/04/27 09:12:52;;;;;;;4.10;1.55;;;;;;;10.67;55.33;102889.94;5073651;28;20073;-71
2022/04/27 09:15:25;;;;;;;5.07;1.83;;;;;;;10.71;54.95;102890.63;5091771;28;20039;-69
2022/04/27 09:20:47;;;;;;;3.97;1.40;;;;;;;10.86;54.55;102891.53;5091411;28;20100;-71
2022/04/27 09:23:19;;;;;;;3.72;1.50;;;;;;;10.94;53.69;102887.47;5091599;28;20020;-71
2022/04/27 09:25:45;;;;;;;2.47;1.55;;;;;;;11.04;53.44;102892.25;5091399;28;20046;-70
2022/04/27 09:28:11;;;;;;;3.83;1.73;;;;;;;11.13;52.96;102893.50;5072926;28;20028;-70
2022/04/27 09:30:36;;;;;;;4.43;1.73;;;;;;;11.22;52.61;102888.44;5091048;28;20048;-69
2022/04/27 09:33:01;;;;;;;2.13;1.35;;;;;;;11.25;52.99;102896.25;5091121;28;20113;-71
2022/04/27 09:35:34;;;;;;;2.60;1.33;;;;;;;11.33;53.01;102894.94;5091296;28;20114;-71
2022/04/27 09:38:13;;;;;;;7.97;1.80;;;;;;;11.39;52.87;102900.75;5091279;28;20101;-71
2022/04/27 09:40:44;;;;;;;6.55;1.70;;;;;;;11.44;53.04;102897.81;5072661;28;20341;-71
2022/04/27 09:43:12;;;;;;;4.90;1.90;;;;;;;11.50;52.40;102905.44;5056117;28;20459;-70
2022/04/27 09:45:38;;;;;;;3.95;1.38;;;;;;;11.38;53.42;102908.84;5090896;28;20452;-71
2022/04/27 09:48:04;;;;;;;5.40;1.60;;;;;;;11.27;55.26;102906.81;5090396;28;20034;-70
2022/04/27 09:50:47;;;;;;;11.80;2.08;;;;;;;11.14;55.00;102913.84;5090885;28;20157;-70
2022/04/27 09:53:14;;;;;;;12.25;1.75;;;;;;;11.09;55.86;102911.44;5090668;28;20043;-70
2022/04/27 09:55:51;;;;;;;8.55;1.50;;;;;;;11.09;56.29;102919.44;5090764;28;20020;-71
2022/04/27 09:58:18;;;;;;;4.63;1.50;;;;;;;11.00;54.44;102915.56;5090962;28;20136;-70
2022/04/27 10:00:45;;;;;;;4.93;1.45;;;;;;;10.98;55.01;102914.75;5090667;28;20035;-72
2022/04/27 10:03:15;;;;;;;9.45;1.80;;;;;;;10.99;55.90;102916.50;5090333;28;20241;-69
2022/04/27 10:05:41;;;;;;;6.30;1.88;;;;;;;11.00;55.91;102912.00;5090614;28;20024;-69
2022/04/27 10:08:08;;;;;;;11.98;2.15;;;;;;;10.96;55.79;102913.13;5090271;28;20036;-72
2022/04/27 10:10:36;;;;;;;10.07;1.95;;;;;;;10.91;55.12;102914.28;5090430;28;20115;-70
2022/04/27 10:13:02;;;;;;;7.88;1.90;;;;;;;11.00;54.38;102917.34;5090228;28;20024;-69
2022/04/27 10:15:29;;;;;;;4.97;1.63;;;;;;;11.04;54.05;102916.22;5090568;28;20028;-71
2022/04/27 10:17:55;;;;;;;7.75;1.95;;;;;;;11.11;54.50;102912.25;5090419;28;20050;-74
2022/04/27 10:20:29;;;;;;;10.05;2.13;;;;;;;11.12;54.97;102908.59;5090547;28;20036;-70
2022/04/27 10:23:32;;;;;;;9.05;1.67;;;;;;;11.24;55.03;102910.56;5090302;28;20027;-70
2022/04/27 10:26:06;;;;;;;8.50;2.33;;;;;;;11.31;54.18;102905.69;5090318;28;20024;-73
2022/04/27 10:28:35;;;;;;;4.07;1.65;;;;;;;11.41;52.04;102906.00;5090163;28;20099;-71
2022/04/27 10:31:03;;;;;;;7.32;1.55;;;;;;;11.38;53.15;102904.38;5089754;28;20095;-71
2022/04/27 10:33:42;;;;;;;4.25;1.77;;;;;;;11.38;52.06;102906.19;5090351;28;20028;-70
2022/04/27 10:36:36;;;;;;;3.22;1.60;;;;;;;11.38;52.15;102908.84;5090234;28;20039;-70
2022/04/27 10:39:23;;;;;;;5.35;1.80;;;;;;;11.43;52.57;102909.41;5090326;28;20146;-71
2022/04/27 10:41:55;;;;;;;7.07;1.90;;;;;;;11.51;51.68;102911.59;5073344;28;20106;-72
2022/04/27 10:44:21;;;;;;;6.20;1.70;;;;;;;11.44;52.13;102912.00;5089479;28;20024;-70
2022/04/27 10:46:46;;;;;;;6.97;2.13;;;;;;;11.43;53.46;102912.94;5090580;28;20066;-71
2022/04/27 10:49:25;;;;;;;6.30;1.80;;;;;;;11.50;52.26;102909.91;5089905;28;20103;-70
2022/04/27 10:52:07;;;;;;;6.07;1.70;;;;;;;11.60;52.63;102911.91;5089525;28;20103;-70
2022/04/27 10:54:39;;;;;;;5.78;1.67;;;;;;;11.57;52.83;102909.44;5089870;28;20035;-71
2022/04/27 10:57:16;;;;;;;5.95;1.88;;;;;;;11.55;52.94;102918.47;5089767;28;20028;-71
2022/04/27 10:59:43;;;;;;;6.72;2.10;;;;;;;11.62;52.15;102917.16;5089752;28;20047;-70
2022/04/27 11:02:37;;;;;;;6.07;2.20;;;;;;;11.47;52.21;102911.78;5089746;28;20357;-71
2022/04/27 11:05:10;;;;;;;7.38;2.00;;;;;;;11.59;52.05;102920.00;5089498;28;20039;-73
2022/04/27 11:07:54;;;;;;;6.45;1.95;;;;;;;11.54;52.28;102920.28;5089657;28;20469;-70
2022/04/27 11:10:21;;;;;;;7.05;2.05;;;;;;;11.50;54.08;102916.09;5089965;28;20048;-70
2022/04/27 11:12:52;;;;;;;7.68;2.15;;;;;;;11.60;53.55;102925.25;5071678;28;20174;-70
2022/04/27 11:15:27;;;;;;;13.75;1.92;;;;;;;11.65;54.04;102917.78;5089676;28;20062;-69
2022/04/27 11:18:01;;;;;;;6.45;2.45;;;;;;;11.73;53.10;102921.81;5071402;28;20074;-70
2022/04/27 11:20:29;;;;;;;5.03;1.88;;;;;;;11.79;50.93;102919.63;5089769;28;20032;-70
2022/04/27 11:22:56;;;;;;;10.05;1.95;;;;;;;11.73;51.21;102921.81;5089902;28;20024;-70
2022/04/27 11:25:26;;;;;;;11.20;2.28;;;;;;;11.73;51.31;102919.13;5089735;28;20032;-69
2022/04/27 11:27:52;;;;;;;8.40;2.35;;;;;;;11.73;51.51;102919.13;5089698;28;20039;-68
2022/04/27 11:30:18;;;;;;;8.05;1.90;;;;;;;11.76;53.38;102921.59;5089217;28;20043;-69
2022/04/27 11:32:50;;;;;;;13.95;2.17;;;;;;;11.92;52.73;102913.50;5089223;28;20032;-68
2022/04/27 11:35:16;;;;;;;5.90;1.73;;;;;;;12.09;51.63;102923.13;5089653;28;20079;-67
2022/04/27 11:37:42;;;;;;;7.93;2.20;;;;;;;12.17;51.92;102918.16;5089809;28;20160;-69
2022/04/27 11:40:15;;;;;;;4.82;1.73;;;;;;;12.35;51.16;102916.13;5089769;28;20443;-70
2022/04/27 11:42:42;;;;;;;4.35;1.90;;;;;;;12.35;50.42;102924.13;5089525;28;20055;-67
2022/04/27 11:45:10;;;;;;;5.78;2.05;;;;;;;12.28;49.72;102920.13;5089473;28;20091;-68